Time;durP1;ratioP1;P1;durP2;ratioP2;P2;SDS_P1;SDS_P2;PMS_P1;PMS_P2;Temp;Humidity;BMP_temperature;BMP_pressure;BME280_temperature;BME280_humidity;BME280_pressure;Samples;Min_cycle;Max_cycle;Signal;HPM_P1;HPM_P2
2020/12/13 00:01:04;;;;;;;41.10;36.85;;;;;;;;;;5076325;28;20412;-79
2020/12/13 00:03:31;;;;;;;41.55;37.60;;;;;;;;;;5076299;28;20256;-79
2020/12/13 00:05:58;;;;;;;42.83;38.42;;;;;;;;;;5076235;28;20226;-79
2020/12/13 00:08:26;;;;;;;40.45;36.55;;;;;;;;;;5076150;28;20194;-79
2020/12/13 00:10:54;;;;;;;43.45;39.30;;;;;;;;;;5076026;28;20216;-78
2020/12/13 00:13:22;;;;;;;43.55;39.15;;;;;;;;;;5075702;28;20207;-79
2020/12/13 00:15:49;;;;;;;44.33;39.83;;;;;;;;;;5076585;28;20188;-79
2020/12/13 00:18:16;;;;;;;43.17;38.88;;;;;;;;;;5076320;28;20191;-78
2020/12/13 00:20:42;;;;;;;44.13;39.67;;;;;;;;;;5075928;28;20190;-79
2020/12/13 00:23:09;;;;;;;41.57;37.67;;;;;;;;;;5077028;28;20248;-79
2020/12/13 00:25:36;;;;;;;44.77;40.03;;;;;;;;;;5075972;28;20438;-79
2020/12/13 00:28:03;;;;;;;42.67;38.43;;;;;;;;;;5075764;28;20456;-79
2020/12/13 00:30:31;;;;;;;42.05;37.83;;;;;;;;;;5075936;28;20460;-79
2020/12/13 00:32:58;;;;;;;45.60;40.57;;;;;;;;;;5058657;28;20192;-79
2020/12/13 00:35:25;;;;;;;44.95;40.53;;;;;;;;;;5076131;28;20420;-78
2020/12/13 00:37:52;;;;;;;46.00;39.63;;;;;;;;;;5075988;28;20191;-79
2020/12/13 00:40:19;;;;;;;43.45;39.05;;;;;;;;;;5075943;28;20421;-79
2020/12/13 00:42:46;;;;;;;50.33;43.60;;;;;;;;;;5075679;28;20191;-79
2020/12/13 00:45:13;;;;;;;43.87;39.00;;;;;;;;;;5075704;28;20436;-79
2020/12/13 00:47:41;;;;;;;46.87;41.87;;;;;;;;;;5075764;28;20473;-79
2020/12/13 00:50:08;;;;;;;46.70;41.70;;;;;;;;;;5075369;28;20506;-79
2020/12/13 00:52:35;;;;;;;44.72;40.22;;;;;;;;;;5075677;28;20465;-79
2020/12/13 00:55:02;;;;;;;45.13;40.60;;;;;;;;;;5075053;28;20263;-79
2020/12/13 00:57:29;;;;;;;40.90;37.03;;;;;;;;;;5075147;28;20252;-79
2020/12/13 00:59:56;;;;;;;49.97;44.70;;;;;;;;;;5075068;28;20665;-80
2020/12/13 01:02:23;;;;;;;38.03;34.33;;;;;;;;;;5056604;28;20473;-79
2020/12/13 01:04:52;;;;;;;42.63;38.38;;;;;;;;;;5074930;28;20412;-79
2020/12/13 01:07:19;;;;;;;43.47;37.13;;;;;;;;;;5075263;28;20289;-79
2020/12/13 01:09:46;;;;;;;46.00;38.40;;;;;;;;;;5057300;28;20191;-79
2020/12/13 01:12:13;;;;;;;41.85;37.95;;;;;;;;;;5075010;28;20969;-79
2020/12/13 01:14:40;;;;;;;42.15;37.97;;;;;;;;;;5057631;28;20291;-79
2020/12/13 01:17:08;;;;;;;43.47;38.83;;;;;;;;;;5074850;28;20267;-78
2020/12/13 01:19:35;;;;;;;42.03;37.75;;;;;;;;;;5075314;28;20207;-79
2020/12/13 01:22:03;;;;;;;41.45;37.22;;;;;;;;;;5075169;28;20197;-79
2020/12/13 01:24:30;;;;;;;40.63;36.42;;;;;;;;;;5074816;28;20240;-79
2020/12/13 01:26:56;;;;;;;41.45;37.55;;;;;;;;;;5074718;28;20225;-79
2020/12/13 01:29:23;;;;;;;43.70;39.03;;;;;;;;;;5074622;28;20191;-78
2020/12/13 01:31:50;;;;;;;42.75;38.80;;;;;;;;;;5074689;28;20294;-79
2020/12/13 01:34:17;;;;;;;43.25;38.78;;;;;;;;;;5074477;28;20217;-79
2020/12/13 01:36:44;;;;;;;43.50;39.40;;;;;;;;;;5074625;28;20199;-79
2020/12/13 01:39:12;;;;;;;40.85;36.95;;;;;;;;;;5057166;28;20275;-79
2020/12/13 01:41:39;;;;;;;44.35;39.65;;;;;;;;;;5074276;28;20201;-79
2020/12/13 01:44:06;;;;;;;42.00;37.83;;;;;;;;;;5074434;28;20551;-79
2020/12/13 01:46:33;;;;;;;44.13;39.55;;;;;;;;;;5074306;28;20244;-79
2020/12/13 01:49:04;;;;;;;40.30;36.30;;;;;;;;;;5074594;28;20276;-79
2020/12/13 01:51:50;;;;;;;42.83;38.25;;;;;;;;;;5074089;28;20601;-79
2020/12/13 01:54:19;;;;;;;44.85;40.00;;;;;;;;;;5073931;28;20257;-79
2020/12/13 01:56:47;;;;;;;44.35;38.65;;;;;;;;;;5074295;28;20202;-79
2020/12/13 01:59:16;;;;;;;42.75;38.55;;;;;;;;;;5074367;28;20241;-78
2020/12/13 02:01:46;;;;;;;41.80;37.60;;;;;;;;;;5073812;28;20561;-79
2020/12/13 02:04:16;;;;;;;41.20;37.17;;;;;;;;;;5073980;28;20923;-79
2020/12/13 02:06:44;;;;;;;40.75;36.65;;;;;;;;;;5074120;28;20224;-79
2020/12/13 02:09:11;;;;;;;41.47;37.38;;;;;;;;;;5074188;28;20210;-79
2020/12/13 02:11:38;;;;;;;41.78;37.58;;;;;;;;;;5073913;28;20194;-79
2020/12/13 02:14:05;;;;;;;43.35;39.08;;;;;;;;;;5074095;28;20187;-79
2020/12/13 02:16:32;;;;;;;42.88;37.97;;;;;;;;;;5074031;28;20199;-79
2020/12/13 02:18:59;;;;;;;46.23;41.20;;;;;;;;;;5074029;28;20192;-79
2020/12/13 02:21:26;;;;;;;44.30;39.90;;;;;;;;;;5074387;28;20412;-79
2020/12/13 02:23:54;;;;;;;42.47;38.28;;;;;;;;;;5072569;28;20414;-79
2020/12/13 02:26:21;;;;;;;45.90;41.45;;;;;;;;;;5073897;28;20194;-79
2020/12/13 02:28:47;;;;;;;43.60;39.05;;;;;;;;;;5073677;28;20220;-79
2020/12/13 02:31:14;;;;;;;45.10;40.37;;;;;;;;;;5073430;28;20698;-79
2020/12/13 02:33:42;;;;;;;44.17;39.47;;;;;;;;;;5073549;28;20414;-79
2020/12/13 02:36:09;;;;;;;44.47;39.80;;;;;;;;;;5073436;28;20670;-79
2020/12/13 02:38:36;;;;;;;44.40;39.70;;;;;;;;;;5073228;28;20215;-79
2020/12/13 02:41:03;;;;;;;42.97;38.35;;;;;;;;;;5073670;28;20268;-79
2020/12/13 02:43:30;;;;;;;43.90;39.47;;;;;;;;;;5073960;28;20190;-79
2020/12/13 02:45:57;;;;;;;43.90;39.70;;;;;;;;;;5073276;28;20806;-79
2020/12/13 02:48:25;;;;;;;43.85;39.55;;;;;;;;;;5073226;28;20492;-79
2020/12/13 02:50:52;;;;;;;43.60;39.30;;;;;;;;;;5073379;28;20194;-79
2020/12/13 02:53:18;;;;;;;43.72;39.05;;;;;;;;;;5073496;28;20430;-79
2020/12/13 02:55:45;;;;;;;44.72;40.17;;;;;;;;;;5073428;28;20223;-79
2020/12/13 02:58:13;;;;;;;42.88;38.50;;;;;;;;;;5073945;28;20193;-79
2020/12/13 03:00:40;;;;;;;40.40;36.60;;;;;;;;;;5073199;28;20636;-79
2020/12/13 03:03:07;;;;;;;42.42;37.95;;;;;;;;;;5073026;28;20516;-79
2020/12/13 03:05:34;;;;;;;42.28;38.38;;;;;;;;;;5072342;28;20228;-79
2020/12/13 03:08:01;;;;;;;44.30;39.27;;;;;;;;;;5073439;28;20226;-79
2020/12/13 03:10:27;;;;;;;43.37;38.83;;;;;;;;;;5073341;28;20438;-79
2020/12/13 03:12:54;;;;;;;45.65;40.80;;;;;;;;;;5073817;28;20433;-79
2020/12/13 03:15:22;;;;;;;43.53;38.40;;;;;;;;;;5073467;28;20309;-79
2020/12/13 03:17:49;;;;;;;43.30;39.00;;;;;;;;;;5073674;28;20191;-79
2020/12/13 03:20:16;;;;;;;44.40;38.55;;;;;;;;;;5072445;28;20244;-79
2020/12/13 03:22:43;;;;;;;41.95;37.65;;;;;;;;;;5073600;28;20194;-79
2020/12/13 03:25:09;;;;;;;44.67;39.97;;;;;;;;;;5073054;28;20190;-79
2020/12/13 03:27:36;;;;;;;43.22;38.72;;;;;;;;;;5073710;28;20487;-79
2020/12/13 03:30:04;;;;;;;43.30;38.60;;;;;;;;;;5073356;28;20191;-79
2020/12/13 03:32:35;;;;;;;43.58;39.17;;;;;;;;;;5073470;28;20184;-79
2020/12/13 03:35:02;;;;;;;41.65;37.45;;;;;;;;;;5073469;28;20632;-79
2020/12/13 03:37:29;;;;;;;40.92;36.90;;;;;;;;;;5073732;28;20187;-78
2020/12/13 03:39:56;;;;;;;50.15;40.45;;;;;;;;;;5073760;28;20633;-79
2020/12/13 03:42:23;;;;;;;42.67;38.47;;;;;;;;;;5072134;28;20620;-79
2020/12/13 03:44:50;;;;;;;44.80;40.07;;;;;;;;;;5073000;28;20188;-79
2020/12/13 03:47:17;;;;;;;42.33;38.03;;;;;;;;;;5073102;28;20485;-80
2020/12/13 03:49:44;;;;;;;41.05;36.90;;;;;;;;;;5076488;28;20240;-79
2020/12/13 03:52:11;;;;;;;43.78;38.97;;;;;;;;;;5077090;28;20201;-79
2020/12/13 03:54:38;;;;;;;43.58;39.10;;;;;;;;;;5076502;28;20698;-79
2020/12/13 03:57:05;;;;;;;41.67;37.40;;;;;;;;;;5076376;28;20198;-79
2020/12/13 03:59:32;;;;;;;43.13;38.50;;;;;;;;;;5076524;28;20209;-79
2020/12/13 04:01:59;;;;;;;47.05;39.70;;;;;;;;;;5076006;28;20477;-79
2020/12/13 04:04:26;;;;;;;43.73;39.37;;;;;;;;;;5076823;28;20581;-79
2020/12/13 04:06:54;;;;;;;42.27;37.60;;;;;;;;;;5076245;28;20863;-79
2020/12/13 04:09:20;;;;;;;42.37;37.90;;;;;;;;;;5076385;28;20419;-80
2020/12/13 04:11:47;;;;;;;43.43;38.83;;;;;;;;;;5076492;28;20499;-79
2020/12/13 04:14:14;;;;;;;44.20;38.67;;;;;;;;;;5076200;28;20429;-79
2020/12/13 04:16:41;;;;;;;41.57;37.60;;;;;;;;;;5076353;28;20412;-79
2020/12/13 04:19:08;;;;;;;43.10;38.80;;;;;;;;;;5076437;28;20411;-79
2020/12/13 04:21:35;;;;;;;43.57;39.03;;;;;;;;;;5076063;28;20404;-79
2020/12/13 04:24:03;;;;;;;41.45;37.05;;;;;;;;;;5075034;28;20441;-79
2020/12/13 04:26:30;;;;;;;45.90;40.80;;;;;;;;;;5075954;28;20215;-79
2020/12/13 04:28:56;;;;;;;42.07;36.60;;;;;;;;;;5058580;28;20415;-79
2020/12/13 04:31:23;;;;;;;40.67;36.67;;;;;;;;;;5075525;28;20920;-79
2020/12/13 04:33:50;;;;;;;45.77;40.93;;;;;;;;;;5076218;28;20884;-79
2020/12/13 04:36:18;;;;;;;45.13;39.33;;;;;;;;;;5075721;28;20473;-79
2020/12/13 04:38:44;;;;;;;43.70;37.93;;;;;;;;;;5075938;28;20483;-79
2020/12/13 04:41:12;;;;;;;51.57;42.80;;;;;;;;;;5075826;28;20400;-79
2020/12/13 04:43:40;;;;;;;47.10;38.73;;;;;;;;;;5075697;28;20436;-79
2020/12/13 04:46:07;;;;;;;51.53;42.13;;;;;;;;;;5075908;28;20408;-79
2020/12/13 04:48:34;;;;;;;42.47;37.83;;;;;;;;;;5075425;28;20476;-79
2020/12/13 04:51:01;;;;;;;44.13;39.60;;;;;;;;;;5075635;28;20206;-79
2020/12/13 04:53:29;;;;;;;48.07;38.77;;;;;;;;;;5075298;28;20774;-79
2020/12/13 04:55:56;;;;;;;43.72;37.40;;;;;;;;;;5075742;28;20452;-80
2020/12/13 04:58:25;;;;;;;44.13;39.47;;;;;;;;;;5075224;28;20188;-79
2020/12/13 05:00:54;;;;;;;45.37;39.50;;;;;;;;;;5074531;28;20415;-79
2020/12/13 05:03:21;;;;;;;51.60;41.10;;;;;;;;;;5075108;28;20444;-79
2020/12/13 05:05:48;;;;;;;46.17;40.53;;;;;;;;;;5075151;28;20472;-79
2020/12/13 05:08:15;;;;;;;52.73;40.93;;;;;;;;;;5074856;28;20463;-79
2020/12/13 05:10:42;;;;;;;51.42;42.08;;;;;;;;;;5075055;28;20446;-79
2020/12/13 05:13:10;;;;;;;58.73;42.00;;;;;;;;;;5057783;28;20195;-79
2020/12/13 05:15:38;;;;;;;52.45;43.65;;;;;;;;;;5075050;28;20802;-79
2020/12/13 05:18:05;;;;;;;52.00;41.53;;;;;;;;;;5075553;28;20211;-79
2020/12/13 05:20:33;;;;;;;60.13;44.33;;;;;;;;;;5075049;28;20432;-79
2020/12/13 05:23:01;;;;;;;58.13;44.47;;;;;;;;;;5074789;28;20436;-79
2020/12/13 05:25:31;;;;;;;56.40;43.10;;;;;;;;;;5074875;28;20453;-79
2020/12/13 05:27:59;;;;;;;61.63;44.53;;;;;;;;;;5074546;28;20545;-79
2020/12/13 05:30:30;;;;;;;71.43;48.58;;;;;;;;;;5074271;28;20455;-79
2020/12/13 05:33:11;;;;;;;73.93;46.23;;;;;;;;;;5075008;28;20209;-79
2020/12/13 05:35:38;;;;;;;66.73;45.73;;;;;;;;;;5074416;28;20793;-79
2020/12/13 05:38:11;;;;;;;71.07;46.53;;;;;;;;;;5074389;28;20467;-79
2020/12/13 05:40:38;;;;;;;63.83;46.43;;;;;;;;;;5074679;28;20521;-79
2020/12/13 05:43:09;;;;;;;81.20;45.33;;;;;;;;;;5074613;28;20536;-79
2020/12/13 05:45:49;;;;;;;73.70;46.33;;;;;;;;;;5074722;28;20209;-79
2020/12/13 05:51:23;;;;;;;65.97;45.87;;;;;;;;;;5059685;28;20201;-79
2020/12/13 05:53:52;;;;;;;83.63;48.67;;;;;;;;;;5074357;28;20536;-79
2020/12/13 05:56:19;;;;;;;66.90;46.20;;;;;;;;;;5074448;28;20456;-79
2020/12/13 05:58:46;;;;;;;71.37;45.90;;;;;;;;;;5074191;28;20445;-79
2020/12/13 06:01:17;;;;;;;67.30;46.70;;;;;;;;;;5072721;28;20423;-79
2020/12/13 06:03:50;;;;;;;71.22;45.35;;;;;;;;;;5074417;28;20464;-79
2020/12/13 06:06:19;;;;;;;83.70;49.63;;;;;;;;;;5074015;28;20526;-79
2020/12/13 06:08:54;;;;;;;76.53;46.10;;;;;;;;;;5074210;28;20252;-79
2020/12/13 06:11:21;;;;;;;80.43;46.38;;;;;;;;;;5073695;28;20429;-79
2020/12/13 06:13:53;;;;;;;64.28;48.08;;;;;;;;;;5073760;28;20194;-79
2020/12/13 06:16:20;;;;;;;81.37;49.87;;;;;;;;;;5074163;28;20222;-79
2020/12/13 06:18:48;;;;;;;66.18;46.97;;;;;;;;;;5074754;28;20420;-79
2020/12/13 06:21:16;;;;;;;73.97;47.03;;;;;;;;;;5074240;28;20552;-79
2020/12/13 06:23:48;;;;;;;67.13;45.70;;;;;;;;;;5073757;28;20192;-79
2020/12/13 06:26:15;;;;;;;68.70;46.43;;;;;;;;;;5073617;28;20556;-79
2020/12/13 06:28:42;;;;;;;73.00;45.90;;;;;;;;;;5073499;28;20471;-79
2020/12/13 06:31:09;;;;;;;73.90;48.30;;;;;;;;;;5073999;28;20404;-79
2020/12/13 06:33:41;;;;;;;63.23;45.03;;;;;;;;;;5074010;28;20817;-79
2020/12/13 06:36:09;;;;;;;74.68;46.40;;;;;;;;;;5073793;28;20495;-78
2020/12/13 06:38:36;;;;;;;68.83;44.53;;;;;;;;;;5073697;28;20191;-79
2020/12/13 06:41:06;;;;;;;59.47;46.00;;;;;;;;;;5073413;28;20782;-78
2020/12/13 06:43:39;;;;;;;63.97;44.15;;;;;;;;;;5073538;28;20416;-79
2020/12/13 06:46:12;;;;;;;69.07;44.90;;;;;;;;;;5073779;28;20197;-79
2020/12/13 06:48:39;;;;;;;62.35;47.10;;;;;;;;;;5073607;28;20255;-79
2020/12/13 06:51:11;;;;;;;64.57;45.00;;;;;;;;;;5073419;28;20253;-79
2020/12/13 06:53:38;;;;;;;57.28;42.30;;;;;;;;;;5073896;28;20465;-79
2020/12/13 06:56:11;;;;;;;68.03;46.28;;;;;;;;;;5072500;28;20205;-79
2020/12/13 06:58:42;;;;;;;66.18;45.40;;;;;;;;;;5073384;28;20658;-79
2020/12/13 07:01:16;;;;;;;63.50;44.60;;;;;;;;;;5073608;28;20203;-79
2020/12/13 07:03:42;;;;;;;65.80;43.70;;;;;;;;;;5073453;28;20423;-79
2020/12/13 07:06:15;;;;;;;62.30;43.90;;;;;;;;;;5073447;28;20202;-79
2020/12/13 07:08:47;;;;;;;63.83;45.30;;;;;;;;;;5072013;28;20483;-79
2020/12/13 07:11:14;;;;;;;58.90;42.15;;;;;;;;;;5073570;28;20217;-79
2020/12/13 07:13:44;;;;;;;65.68;43.65;;;;;;;;;;5073072;28;20656;-79
2020/12/13 07:16:14;;;;;;;68.72;43.45;;;;;;;;;;5073162;28;20636;-78
2020/12/13 07:18:45;;;;;;;63.13;45.63;;;;;;;;;;5073181;28;20195;-79
2020/12/13 07:21:14;;;;;;;59.80;45.93;;;;;;;;;;5073411;28;20421;-79
2020/12/13 07:23:44;;;;;;;59.67;43.93;;;;;;;;;;5057261;28;20973;-79
2020/12/13 07:26:11;;;;;;;68.00;46.85;;;;;;;;;;5076259;28;20493;-78
2020/12/13 07:28:38;;;;;;;66.40;46.47;;;;;;;;;;5077283;28;20225;-79
2020/12/13 07:31:05;;;;;;;68.63;46.33;;;;;;;;;;5076883;28;20881;-79
2020/12/13 07:33:32;;;;;;;62.23;43.87;;;;;;;;;;5077201;28;20535;-79
2020/12/13 07:35:59;;;;;;;67.18;45.83;;;;;;;;;;5077299;28;20409;-79
2020/12/13 07:38:26;;;;;;;69.97;46.90;;;;;;;;;;5059296;28;20244;-79
2020/12/13 07:40:54;;;;;;;72.83;46.17;;;;;;;;;;5076777;28;20191;-79
2020/12/13 07:43:20;;;;;;;70.63;46.13;;;;;;;;;;5076649;28;20937;-79
2020/12/13 07:45:47;;;;;;;71.28;46.15;;;;;;;;;;5077040;28;20190;-79
2020/12/13 07:48:16;;;;;;;64.47;44.30;;;;;;;;;;5076915;28;20296;-79
2020/12/13 07:50:44;;;;;;;69.67;45.97;;;;;;;;;;5077357;28;20207;-81
2020/12/13 07:53:11;;;;;;;65.25;43.75;;;;;;;;;;5059715;28;20490;-81
2020/12/13 07:55:42;;;;;;;67.90;46.75;;;;;;;;;;5077825;28;20201;-81
2020/12/13 07:58:10;;;;;;;64.60;46.08;;;;;;;;;;5077030;28;20225;-81
2020/12/13 08:00:37;;;;;;;58.17;43.35;;;;;;;;;;5076975;28;20587;-81
2020/12/13 08:03:05;;;;;;;68.75;45.75;;;;;;;;;;5072147;28;20235;-82
2020/12/13 08:05:32;;;;;;;61.78;44.05;;;;;;;;;;5057228;28;20267;-81
2020/12/13 08:07:59;;;;;;;58.58;43.75;;;;;;;;;;5056880;28;20219;-81
2020/12/13 08:10:28;;;;;;;72.78;48.00;;;;;;;;;;5057054;28;20191;-81
2020/12/13 08:12:55;;;;;;;72.10;46.15;;;;;;;;;;5056494;28;20287;-81
2020/12/13 08:15:23;;;;;;;65.55;46.55;;;;;;;;;;5056502;28;20638;-81
2020/12/13 08:18:03;;;;;;;60.10;44.50;;;;;;;;;;5056370;28;20208;-79
2020/12/13 08:20:30;;;;;;;64.07;47.17;;;;;;;;;;5055938;28;20674;-77
2020/12/13 08:22:59;;;;;;;63.85;46.70;;;;;;;;;;5055896;28;20714;-77
2020/12/13 08:25:26;;;;;;;62.80;45.57;;;;;;;;;;5056309;28;20195;-77
2020/12/13 08:27:53;;;;;;;62.92;46.88;;;;;;;;;;5056149;28;20492;-79
2020/12/13 08:30:20;;;;;;;58.80;44.92;;;;;;;;;;5056110;28;20195;-76
2020/12/13 08:32:48;;;;;;;55.55;45.15;;;;;;;;;;5056113;28;20192;-82
2020/12/13 08:35:17;;;;;;;60.10;45.33;;;;;;;;;;5055122;28;20253;-81
2020/12/13 08:37:53;;;;;;;61.90;45.67;;;;;;;;;;5056268;28;20464;-82
2020/12/13 08:40:34;;;;;;;62.37;46.00;;;;;;;;;;5055854;28;20498;-81
2020/12/13 08:43:01;;;;;;;68.10;48.73;;;;;;;;;;5055162;28;20823;-81
2020/12/13 08:45:28;;;;;;;67.95;48.00;;;;;;;;;;5071645;28;20919;-81
2020/12/13 08:48:00;;;;;;;68.97;46.00;;;;;;;;;;5055331;28;20683;-80
2020/12/13 08:50:27;;;;;;;63.75;45.70;;;;;;;;;;5055807;28;20434;-80
2020/12/13 08:52:55;;;;;;;65.83;45.90;;;;;;;;;;5055735;28;20190;-80
2020/12/13 08:55:26;;;;;;;70.07;49.30;;;;;;;;;;5070728;28;20871;-80
2020/12/13 08:57:59;;;;;;;62.73;46.67;;;;;;;;;;5055284;28;20231;-81
2020/12/13 09:00:27;;;;;;;62.00;47.63;;;;;;;;;;5055370;28;20527;-79
2020/12/13 09:02:58;;;;;;;68.68;48.08;;;;;;;;;;5070471;28;20466;-80
2020/12/13 09:05:30;;;;;;;69.65;47.92;;;;;;;;;;5073817;28;20208;-80
2020/12/13 09:07:58;;;;;;;68.60;49.40;;;;;;;;;;5075029;28;20223;-79
2020/12/13 09:10:41;;;;;;;60.80;46.40;;;;;;;;;;5075208;28;20524;-80
2020/12/13 09:13:10;;;;;;;65.30;47.40;;;;;;;;;;5075524;28;20417;-82
2020/12/13 09:15:37;;;;;;;67.37;47.80;;;;;;;;;;5075224;28;20898;-83
2020/12/13 09:18:04;;;;;;;74.77;51.03;;;;;;;;;;5075102;28;20441;-80
2020/12/13 09:20:32;;;;;;;71.87;51.73;;;;;;;;;;5074647;28;20412;-77
2020/12/13 09:23:02;;;;;;;78.70;51.72;;;;;;;;;;5074673;28;20471;-80
2020/12/13 09:25:29;;;;;;;75.47;50.83;;;;;;;;;;5073459;28;20206;-77
2020/12/13 09:28:01;;;;;;;73.88;48.88;;;;;;;;;;5074798;28;20460;-82
2020/12/13 09:30:28;;;;;;;75.78;52.28;;;;;;;;;;5074926;28;20325;-81
2020/12/13 09:32:55;;;;;;;73.33;50.83;;;;;;;;;;5075579;28;20244;-85
2020/12/13 09:35:22;;;;;;;71.43;51.92;;;;;;;;;;5075236;28;20905;-77
2020/12/13 09:37:50;;;;;;;81.03;56.07;;;;;;;;;;5074654;28;20263;-79
2020/12/13 09:40:17;;;;;;;76.22;51.05;;;;;;;;;;5075116;28;20416;-80
2020/12/13 09:42:44;;;;;;;69.20;47.40;;;;;;;;;;5074777;28;20601;-81
2020/12/13 09:45:10;;;;;;;75.05;53.75;;;;;;;;;;5074305;28;20633;-81
2020/12/13 09:47:37;;;;;;;79.15;51.40;;;;;;;;;;5074437;28;20216;-80
2020/12/13 09:50:04;;;;;;;81.77;52.50;;;;;;;;;;5074693;28;20643;-81
2020/12/13 09:52:32;;;;;;;81.53;52.08;;;;;;;;;;5073563;28;20448;-81
2020/12/13 09:55:00;;;;;;;83.47;53.22;;;;;;;;;;5074748;28;20299;-81
2020/12/13 09:57:26;;;;;;;92.40;53.80;;;;;;;;;;5074658;28;20196;-81
2020/12/13 09:59:53;;;;;;;80.85;52.17;;;;;;;;;;5074914;28;20213;-81
2020/12/13 10:02:23;;;;;;;78.03;48.60;;;;;;;;;;5074165;28;20251;-81
2020/12/13 10:04:50;;;;;;;82.65;50.78;;;;;;;;;;5072834;28;20202;-81
2020/12/13 10:07:31;;;;;;;82.20;49.97;;;;;;;;;;5074514;28;20226;-81
2020/12/13 10:09:57;;;;;;;92.33;54.33;;;;;;;;;;5074205;28;20206;-81
2020/12/13 10:12:25;;;;;;;82.68;49.90;;;;;;;;;;5074479;28;20490;-81
2020/12/13 10:14:52;;;;;;;81.37;49.93;;;;;;;;;;5057617;28;20228;-81
2020/12/13 10:17:19;;;;;;;94.57;51.00;;;;;;;;;;5074101;28;20449;-81
2020/12/13 10:19:46;;;;;;;87.65;50.03;;;;;;;;;;5074457;28;20199;-81
2020/12/13 10:22:12;;;;;;;78.87;49.20;;;;;;;;;;5074148;28;20648;-81
2020/12/13 10:24:39;;;;;;;158.60;60.60;;;;;;;;;;5073424;28;20408;-81
2020/12/13 10:27:06;;;;;;;104.10;56.97;;;;;;;;;;5074248;28;20412;-81
2020/12/13 10:29:34;;;;;;;101.60;51.93;;;;;;;;;;5074293;28;20455;-81
2020/12/13 10:32:01;;;;;;;89.53;52.20;;;;;;;;;;5072937;28;20930;-81
2020/12/13 10:34:27;;;;;;;92.73;49.93;;;;;;;;;;5074507;28;20453;-81
2020/12/13 10:36:55;;;;;;;99.70;55.87;;;;;;;;;;5074430;28;20508;-81
2020/12/13 10:39:22;;;;;;;112.37;55.10;;;;;;;;;;5073219;28;20912;-81
2020/12/13 10:41:51;;;;;;;92.07;52.90;;;;;;;;;;5073651;28;20470;-81
2020/12/13 10:44:19;;;;;;;103.20;54.77;;;;;;;;;;5073155;28;20445;-81
2020/12/13 10:46:48;;;;;;;95.85;54.08;;;;;;;;;;5074316;28;20460;-81
2020/12/13 10:49:17;;;;;;;98.47;54.40;;;;;;;;;;5074562;28;20228;-81
2020/12/13 10:51:45;;;;;;;96.20;52.97;;;;;;;;;;5074125;28;20460;-80
2020/12/13 10:54:12;;;;;;;101.50;51.50;;;;;;;;;;5074149;28;20621;-81
2020/12/13 10:56:39;;;;;;;89.37;52.00;;;;;;;;;;5074300;28;20475;-81
2020/12/13 10:59:05;;;;;;;91.85;52.00;;;;;;;;;;5076284;28;20895;-81
2020/12/13 11:01:32;;;;;;;88.23;53.07;;;;;;;;;;5077504;28;20684;-80
2020/12/13 11:04:00;;;;;;;88.37;48.97;;;;;;;;;;5077781;28;20415;-81
2020/12/13 11:06:28;;;;;;;98.47;50.80;;;;;;;;;;5077901;28;20429;-80
2020/12/13 11:08:55;;;;;;;79.13;48.93;;;;;;;;;;5077501;28;20463;-82
2020/12/13 11:11:22;;;;;;;107.63;53.27;;;;;;;;;;5077844;28;20461;-81
2020/12/13 11:13:49;;;;;;;78.53;48.63;;;;;;;;;;5077746;28;20453;-81
2020/12/13 11:16:16;;;;;;;78.50;50.90;;;;;;;;;;5077960;28;20799;-81
2020/12/13 11:18:43;;;;;;;85.77;50.83;;;;;;;;;;5077947;28;20815;-82
2020/12/13 11:21:11;;;;;;;96.00;54.67;;;;;;;;;;5077561;28;20441;-81
2020/12/13 11:23:37;;;;;;;86.30;54.00;;;;;;;;;;5077912;28;20408;-81
2020/12/13 11:26:04;;;;;;;87.90;50.70;;;;;;;;;;5077858;28;20815;-81
2020/12/13 11:28:31;;;;;;;98.20;54.27;;;;;;;;;;5077334;28;20455;-81
2020/12/13 11:30:58;;;;;;;80.10;49.00;;;;;;;;;;5077492;28;20821;-81
2020/12/13 11:33:25;;;;;;;75.10;48.23;;;;;;;;;;5077276;28;20441;-81
2020/12/13 11:35:52;;;;;;;80.47;49.77;;;;;;;;;;5060065;28;20413;-82
2020/12/13 11:38:20;;;;;;;88.60;52.57;;;;;;;;;;5077379;28;20459;-82
2020/12/13 11:40:47;;;;;;;74.87;50.00;;;;;;;;;;5077090;28;20947;-81
2020/12/13 11:43:13;;;;;;;87.57;52.37;;;;;;;;;;5077464;28;20396;-82
2020/12/13 11:45:40;;;;;;;87.37;52.70;;;;;;;;;;5077268;28;20806;-84
2020/12/13 11:48:07;;;;;;;82.73;52.23;;;;;;;;;;5076263;28;20521;-84
2020/12/13 11:50:40;;;;;;;75.37;51.90;;;;;;;;;;5077332;28;20410;-82
2020/12/13 11:53:07;;;;;;;82.77;52.10;;;;;;;;;;5077118;28;20487;-80
2020/12/13 11:55:35;;;;;;;74.43;51.60;;;;;;;;;;5077492;28;20768;-81
2020/12/13 11:58:02;;;;;;;76.93;50.53;;;;;;;;;;5076211;28;20500;-82
2020/12/13 12:00:28;;;;;;;83.47;53.03;;;;;;;;;;5076259;28;21022;-84
2020/12/13 12:02:55;;;;;;;71.27;48.53;;;;;;;;;;5076839;28;20862;-84
2020/12/13 12:05:22;;;;;;;76.37;49.87;;;;;;;;;;5076958;28;20446;-84
2020/12/13 12:07:49;;;;;;;75.97;50.80;;;;;;;;;;5076299;28;20465;-84
2020/12/13 12:10:16;;;;;;;85.30;50.53;;;;;;;;;;5074719;28;20451;-84
2020/12/13 12:12:44;;;;;;;81.00;54.67;;;;;;;;;;5077123;28;20427;-84
2020/12/13 12:15:10;;;;;;;72.70;49.03;;;;;;;;;;5076943;28;20407;-84
2020/12/13 12:17:37;;;;;;;73.30;50.80;;;;;;;;;;5076864;28;20476;-82
2020/12/13 12:20:04;;;;;;;70.83;51.20;;;;;;;;;;5075835;28;20440;-82
2020/12/13 12:22:32;;;;;;;74.23;53.63;;;;;;;;;;5076852;28;20789;-83
2020/12/13 12:24:59;;;;;;;63.93;48.30;;;;;;;;;;5076961;28;20408;-82
2020/12/13 12:27:26;;;;;;;73.27;52.47;;;;;;;;;;5077339;28;20401;-82
2020/12/13 12:29:54;;;;;;;79.17;52.97;;;;;;;;;;5076936;28;20456;-83
2020/12/13 12:32:21;;;;;;;69.70;50.90;;;;;;;;;;5076591;28;20416;-83
2020/12/13 12:34:48;;;;;;;67.50;50.33;;;;;;;;;;5076465;28;20432;-83
2020/12/13 12:37:15;;;;;;;67.10;51.57;;;;;;;;;;5076725;28;20441;-83
2020/12/13 12:39:42;;;;;;;67.37;51.20;;;;;;;;;;5075668;28;20742;-82
2020/12/13 12:42:09;;;;;;;75.10;50.50;;;;;;;;;;5075982;28;20411;-82
2020/12/13 12:44:35;;;;;;;62.80;46.43;;;;;;;;;;5075992;28;20437;-82
2020/12/13 12:47:03;;;;;;;67.63;52.80;;;;;;;;;;5076013;28;20433;-82
2020/12/13 12:49:30;;;;;;;47.77;40.67;;;;;;;;;;5075774;28;20516;-82
2020/12/13 12:51:57;;;;;;;52.40;43.27;;;;;;;;;;5076349;28;20438;-82
2020/12/13 12:54:24;;;;;;;61.77;49.37;;;;;;;;;;5075799;28;20875;-82
2020/12/13 12:56:51;;;;;;;59.40;50.40;;;;;;;;;;5055908;28;20442;-82
2020/12/13 12:59:21;;;;;;;59.10;49.77;;;;;;;;;;5056033;28;20518;-82
2020/12/13 13:01:51;;;;;;;62.73;48.53;;;;;;;;;;5038161;28;20974;-82
2020/12/13 13:04:22;;;;;;;56.47;47.83;;;;;;;;;;5055591;28;20996;-82
2020/12/13 13:07:04;;;;;;;59.03;47.10;;;;;;;;;;5056065;28;20935;-83
2020/12/13 13:09:33;;;;;;;61.00;50.57;;;;;;;;;;5056067;28;20595;-82
2020/12/13 13:12:01;;;;;;;61.30;46.67;;;;;;;;;;5055092;28;20445;-82
2020/12/13 13:14:29;;;;;;;69.07;51.93;;;;;;;;;;5055839;28;20415;-82
2020/12/13 13:17:03;;;;;;;78.10;55.85;;;;;;;;;;5055686;28;20467;-80
2020/12/13 13:19:32;;;;;;;66.00;50.47;;;;;;;;;;5055255;28;20225;-80
2020/12/13 13:22:01;;;;;;;64.87;50.37;;;;;;;;;;5055377;28;20503;-82
2020/12/13 13:24:28;;;;;;;64.53;49.80;;;;;;;;;;5055794;28;20417;-83
2020/12/13 13:26:56;;;;;;;61.83;53.83;;;;;;;;;;5055474;28;20419;-77
2020/12/13 13:29:23;;;;;;;71.25;50.95;;;;;;;;;;5054872;28;20510;-78
2020/12/13 13:31:54;;;;;;;58.97;48.50;;;;;;;;;;5037015;28;20261;-81
2020/12/13 13:34:21;;;;;;;62.50;48.30;;;;;;;;;;5053460;28;20894;-81
2020/12/13 13:36:49;;;;;;;61.90;50.60;;;;;;;;;;5054260;28;20454;-79
2020/12/13 13:39:15;;;;;;;66.17;52.77;;;;;;;;;;5064173;28;20429;-79
2020/12/13 13:41:42;;;;;;;62.00;50.73;;;;;;;;;;5074620;28;20445;-80
2020/12/13 13:44:14;;;;;;;62.27;49.30;;;;;;;;;;5040370;28;20937;-79
2020/12/13 13:46:51;;;;;;;66.60;52.73;;;;;;;;;;5056312;28;20427;-78
2020/12/13 13:52:06;;;;;;;55.10;47.77;;;;;;;;;;5048178;28;20524;-78
2020/12/13 13:54:33;;;;;;;55.40;49.37;;;;;;;;;;5074161;28;20466;-78
2020/12/13 13:57:03;;;;;;;48.13;42.90;;;;;;;;;;5074234;28;20418;-82
2020/12/13 13:59:31;;;;;;;52.60;45.50;;;;;;;;;;5074822;28;20434;-83
2020/12/13 14:01:58;;;;;;;52.97;47.17;;;;;;;;;;5074031;28;20477;-82
2020/12/13 14:04:26;;;;;;;49.93;43.80;;;;;;;;;;5074364;28;20412;-81
2020/12/13 14:09:44;;;;;;;50.70;44.27;;;;;;;;;;5074251;28;21031;-83
2020/12/13 14:12:11;;;;;;;47.03;42.00;;;;;;;;;;5074701;28;20463;-84
2020/12/13 14:14:39;;;;;;;52.43;41.83;;;;;;;;;;5075163;28;20794;-84
2020/12/13 14:17:06;;;;;;;50.57;42.60;;;;;;;;;;5074999;28;20956;-85
2020/12/13 14:19:33;;;;;;;48.23;43.03;;;;;;;;;;5074643;28;20415;-85
2020/12/13 14:22:00;;;;;;;44.93;40.20;;;;;;;;;;5074866;28;20436;-85
2020/12/13 14:24:27;;;;;;;48.73;43.20;;;;;;;;;;5074771;28;20408;-85
2020/12/13 14:26:55;;;;;;;48.37;43.10;;;;;;;;;;5074588;28;20449;-84
2020/12/13 14:29:22;;;;;;;45.70;41.00;;;;;;;;;;5074502;28;20460;-85